sensor_id;sensor_type;location;lat;lon;timestamp;temperature;humidity
17619;DHT22;8928;51.678;6.074;2023-05-07T00:00:50;13.60;99.90
17619;DHT22;8928;51.678;6.074;2023-05-07T00:03:37;13.60;99.90
17619;DHT22;8928;51.678;6.074;2023-05-07T00:06:26;13.50;99.90
17619;DHT22;8928;51.678;6.074;2023-05-07T00:09:14;13.30;99.90
17619;DHT22;8928;51.678;6.074;2023-05-07T00:12:02;13.20;99.90
17619;DHT22;8928;51.678;6.074;2023-05-07T00:14:49;13.10;99.90
17619;DHT22;8928;51.678;6.074;2023-05-07T00:17:36;13.10;99.90
17619;DHT22;8928;51.678;6.074;2023-05-07T00:20:24;13.00;99.90
17619;DHT22;8928;51.678;6.074;2023-05-07T00:23:12;13.00;99.90
17619;DHT22;8928;51.678;6.074;2023-05-07T00:25:59;12.90;99.90
17619;DHT22;8928;51.678;6.074;2023-05-07T00:28:46;12.90;99.90
17619;DHT22;8928;51.678;6.074;2023-05-07T00:31:33;12.80;99.90
17619;DHT22;8928;51.678;6.074;2023-05-07T00:34:21;12.80;99.90
17619;DHT22;8928;51.678;6.074;2023-05-07T00:37:08;12.70;99.90
17619;DHT22;8928;51.678;6.074;2023-05-07T00:39:56;12.70;99.90
17619;DHT22;8928;51.678;6.074;2023-05-07T00:42:44;12.60;99.90
17619;DHT22;8928;51.678;6.074;2023-05-07T00:45:33;12.60;99.90
17619;DHT22;8928;51.678;6.074;2023-05-07T00:48:20;12.60;99.90
17619;DHT22;8928;51.678;6.074;2023-05-07T00:51:10;12.60;99.90
17619;DHT22;8928;51.678;6.074;2023-05-07T00:53:58;12.50;99.90
17619;DHT22;8928;51.678;6.074;2023-05-07T00:56:46;12.50;99.90
17619;DHT22;8928;51.678;6.074;2023-05-07T00:59:34;12.50;99.90
17619;DHT22;8928;51.678;6.074;2023-05-07T01:02:21;12.50;99.90
17619;DHT22;8928;51.678;6.074;2023-05-07T01:05:10;12.40;99.90
17619;DHT22;8928;51.678;6.074;2023-05-07T01:07:58;12.40;99.90
17619;DHT22;8928;51.678;6.074;2023-05-07T01:10:46;12.50;99.90
17619;DHT22;8928;51.678;6.074;2023-05-07T01:13:35;12.50;99.90
17619;DHT22;8928;51.678;6.074;2023-05-07T01:16:23;12.40;99.90
17619;DHT22;8928;51.678;6.074;2023-05-07T01:19:11;12.40;99.90
17619;DHT22;8928;51.678;6.074;2023-05-07T01:22:03;12.40;99.90
17619;DHT22;8928;51.678;6.074;2023-05-07T01:24:55;12.40;99.90
17619;DHT22;8928;51.678;6.074;2023-05-07T01:27:42;12.50;99.90
17619;DHT22;8928;51.678;6.074;2023-05-07T01:30:29;12.50;99.90
17619;DHT22;8928;51.678;6.074;2023-05-07T01:33:20;12.50;99.90
17619;DHT22;8928;51.678;6.074;2023-05-07T01:36:08;12.60;99.90
17619;DHT22;8928;51.678;6.074;2023-05-07T01:38:57;12.60;99.90
17619;DHT22;8928;51.678;6.074;2023-05-07T01:41:46;12.60;99.90
17619;DHT22;8928;51.678;6.074;2023-05-07T01:44:33;12.60;99.90
17619;DHT22;8928;51.678;6.074;2023-05-07T01:47:21;12.70;99.90
17619;DHT22;8928;51.678;6.074;2023-05-07T01:50:09;12.70;99.90
17619;DHT22;8928;51.678;6.074;2023-05-07T01:52:56;12.80;99.90
17619;DHT22;8928;51.678;6.074;2023-05-07T01:55:43;12.80;99.90
17619;DHT22;8928;51.678;6.074;2023-05-07T01:58:32;12.80;99.90
17619;DHT22;8928;51.678;6.074;2023-05-07T02:01:19;12.90;99.90
17619;DHT22;8928;51.678;6.074;2023-05-07T02:04:06;13.00;99.90
17619;DHT22;8928;51.678;6.074;2023-05-07T02:06:53;13.00;99.90
17619;DHT22;8928;51.678;6.074;2023-05-07T02:09:41;13.00;99.90
17619;DHT22;8928;51.678;6.074;2023-05-07T02:12:28;13.00;99.90
17619;DHT22;8928;51.678;6.074;2023-05-07T02:15:17;13.00;99.90
17619;DHT22;8928;51.678;6.074;2023-05-07T02:18:05;13.00;99.90
17619;DHT22;8928;51.678;6.074;2023-05-07T02:20:53;13.00;99.90
17619;DHT22;8928;51.678;6.074;2023-05-07T02:23:40;13.00;99.90
17619;DHT22;8928;51.678;6.074;2023-05-07T02:26:27;13.00;99.90
17619;DHT22;8928;51.678;6.074;2023-05-07T02:29:14;13.00;99.90
17619;DHT22;8928;51.678;6.074;2023-05-07T02:32:02;13.00;99.90
17619;DHT22;8928;51.678;6.074;2023-05-07T02:34:50;13.10;99.90
17619;DHT22;8928;51.678;6.074;2023-05-07T02:37:38;13.10;99.90
17619;DHT22;8928;51.678;6.074;2023-05-07T02:40:25;13.10;99.90
17619;DHT22;8928;51.678;6.074;2023-05-07T02:43:12;13.10;99.90
17619;DHT22;8928;51.678;6.074;2023-05-07T02:46:03;13.10;99.90
17619;DHT22;8928;51.678;6.074;2023-05-07T02:48:51;13.10;99.90
17619;DHT22;8928;51.678;6.074;2023-05-07T02:51:38;13.10;99.90
17619;DHT22;8928;51.678;6.074;2023-05-07T02:54:25;13.10;99.90
17619;DHT22;8928;51.678;6.074;2023-05-07T02:57:12;13.10;99.90
17619;DHT22;8928;51.678;6.074;2023-05-07T02:59:59;13.10;99.90
17619;DHT22;8928;51.678;6.074;2023-05-07T03:02:56;13.10;99.90
17619;DHT22;8928;51.678;6.074;2023-05-07T03:05:45;13.10;99.90
17619;DHT22;8928;51.678;6.074;2023-05-07T03:08:32;13.10;99.90
17619;DHT22;8928;51.678;6.074;2023-05-07T03:11:19;13.10;99.90
17619;DHT22;8928;51.678;6.074;2023-05-07T03:14:06;13.10;99.90
17619;DHT22;8928;51.678;6.074;2023-05-07T03:16:53;13.10;99.90
17619;DHT22;8928;51.678;6.074;2023-05-07T03:19:40;13.10;99.90
17619;DHT22;8928;51.678;6.074;2023-05-07T03:22:29;13.00;99.90
17619;DHT22;8928;51.678;6.074;2023-05-07T03:25:16;13.00;99.90
17619;DHT22;8928;51.678;6.074;2023-05-07T03:28:03;13.00;99.90
17619;DHT22;8928;51.678;6.074;2023-05-07T03:30:50;13.00;99.90
17619;DHT22;8928;51.678;6.074;2023-05-07T03:33:49;13.00;99.90
17619;DHT22;8928;51.678;6.074;2023-05-07T03:36:36;13.10;99.90
17619;DHT22;8928;51.678;6.074;2023-05-07T03:39:25;13.10;99.90
17619;DHT22;8928;51.678;6.074;2023-05-07T03:42:12;13.10;99.90
17619;DHT22;8928;51.678;6.074;2023-05-07T03:44:59;13.10;99.90
17619;DHT22;8928;51.678;6.074;2023-05-07T03:47:46;13.10;99.90
17619;DHT22;8928;51.678;6.074;2023-05-07T03:50:33;13.10;99.90
17619;DHT22;8928;51.678;6.074;2023-05-07T03:53:20;13.10;99.90
17619;DHT22;8928;51.678;6.074;2023-05-07T03:56:08;13.10;99.90
17619;DHT22;8928;51.678;6.074;2023-05-07T03:58:55;13.10;99.90
17619;DHT22;8928;51.678;6.074;2023-05-07T04:01:43;13.10;99.90
17619;DHT22;8928;51.678;6.074;2023-05-07T04:04:31;13.10;99.90
17619;DHT22;8928;51.678;6.074;2023-05-07T04:07:18;13.10;99.90
17619;DHT22;8928;51.678;6.074;2023-05-07T04:10:06;13.10;99.90
17619;DHT22;8928;51.678;6.074;2023-05-07T04:12:54;13.10;99.90
17619;DHT22;8928;51.678;6.074;2023-05-07T04:15:42;13.10;99.90
17619;DHT22;8928;51.678;6.074;2023-05-07T04:18:30;13.10;99.90
17619;DHT22;8928;51.678;6.074;2023-05-07T04:21:19;13.10;99.90
17619;DHT22;8928;51.678;6.074;2023-05-07T04:24:07;13.10;99.90
17619;DHT22;8928;51.678;6.074;2023-05-07T04:26:54;13.20;99.90
17619;DHT22;8928;51.678;6.074;2023-05-07T04:29:42;13.20;99.90
17619;DHT22;8928;51.678;6.074;2023-05-07T04:32:32;13.20;99.90
17619;DHT22;8928;51.678;6.074;2023-05-07T04:35:19;13.30;99.90
17619;DHT22;8928;51.678;6.074;2023-05-07T04:38:06;13.30;99.90
17619;DHT22;8928;51.678;6.074;2023-05-07T04:40:53;13.40;99.90
17619;DHT22;8928;51.678;6.074;2023-05-07T04:43:41;13.40;99.90
17619;DHT22;8928;51.678;6.074;2023-05-07T04:46:30;13.40;99.90
17619;DHT22;8928;51.678;6.074;2023-05-07T04:49:17;13.40;99.90
17619;DHT22;8928;51.678;6.074;2023-05-07T04:52:04;13.50;99.90
17619;DHT22;8928;51.678;6.074;2023-05-07T04:57:35;13.60;99.90
17619;DHT22;8928;51.678;6.074;2023-05-07T05:00:23;13.60;99.90
17619;DHT22;8928;51.678;6.074;2023-05-07T05:03:12;13.60;99.90
17619;DHT22;8928;51.678;6.074;2023-05-07T05:05:59;13.70;99.90
17619;DHT22;8928;51.678;6.074;2023-05-07T05:08:46;13.70;99.90
17619;DHT22;8928;51.678;6.074;2023-05-07T05:11:33;13.70;99.90
17619;DHT22;8928;51.678;6.074;2023-05-07T05:14:20;13.80;99.90
17619;DHT22;8928;51.678;6.074;2023-05-07T05:17:07;13.90;99.90
17619;DHT22;8928;51.678;6.074;2023-05-07T05:19:55;13.90;99.90
17619;DHT22;8928;51.678;6.074;2023-05-07T05:22:42;14.00;99.90
17619;DHT22;8928;51.678;6.074;2023-05-07T05:25:29;14.10;99.90
17619;DHT22;8928;51.678;6.074;2023-05-07T05:28:16;14.10;99.90
17619;DHT22;8928;51.678;6.074;2023-05-07T05:31:04;14.20;99.90
17619;DHT22;8928;51.678;6.074;2023-05-07T05:33:52;14.20;99.90
17619;DHT22;8928;51.678;6.074;2023-05-07T05:36:40;14.20;99.90
17619;DHT22;8928;51.678;6.074;2023-05-07T05:39:27;14.30;99.90
17619;DHT22;8928;51.678;6.074;2023-05-07T05:42:15;14.30;99.90
17619;DHT22;8928;51.678;6.074;2023-05-07T05:45:02;14.30;99.90
17619;DHT22;8928;51.678;6.074;2023-05-07T05:47:49;14.40;99.90
17619;DHT22;8928;51.678;6.074;2023-05-07T05:50:36;14.40;99.90
17619;DHT22;8928;51.678;6.074;2023-05-07T05:53:24;14.60;99.90
17619;DHT22;8928;51.678;6.074;2023-05-07T05:56:11;14.70;99.90
17619;DHT22;8928;51.678;6.074;2023-05-07T05:58:58;14.90;99.90
17619;DHT22;8928;51.678;6.074;2023-05-07T06:01:46;15.10;99.90
17619;DHT22;8928;51.678;6.074;2023-05-07T06:04:33;15.30;99.90
17619;DHT22;8928;51.678;6.074;2023-05-07T06:07:20;15.40;99.90
17619;DHT22;8928;51.678;6.074;2023-05-07T06:10:09;15.60;99.90
17619;DHT22;8928;51.678;6.074;2023-05-07T06:12:56;15.60;99.90
17619;DHT22;8928;51.678;6.074;2023-05-07T06:15:43;15.70;99.90
17619;DHT22;8928;51.678;6.074;2023-05-07T06:18:30;15.70;99.90
17619;DHT22;8928;51.678;6.074;2023-05-07T06:21:17;15.80;99.90
17619;DHT22;8928;51.678;6.074;2023-05-07T06:24:04;15.80;99.90
17619;DHT22;8928;51.678;6.074;2023-05-07T06:26:53;15.80;99.90
17619;DHT22;8928;51.678;6.074;2023-05-07T06:29:40;15.90;99.90
17619;DHT22;8928;51.678;6.074;2023-05-07T06:32:27;16.00;99.90
17619;DHT22;8928;51.678;6.074;2023-05-07T06:35:14;16.00;99.90
17619;DHT22;8928;51.678;6.074;2023-05-07T06:38:01;16.00;99.90
17619;DHT22;8928;51.678;6.074;2023-05-07T06:40:49;16.10;99.90
17619;DHT22;8928;51.678;6.074;2023-05-07T06:43:37;16.20;99.90
17619;DHT22;8928;51.678;6.074;2023-05-07T06:46:24;16.30;99.90
17619;DHT22;8928;51.678;6.074;2023-05-07T06:49:12;16.40;99.90
17619;DHT22;8928;51.678;6.074;2023-05-07T06:51:59;16.40;99.90
17619;DHT22;8928;51.678;6.074;2023-05-07T06:54:46;16.60;99.90
17619;DHT22;8928;51.678;6.074;2023-05-07T06:57:33;16.60;99.90
17619;DHT22;8928;51.678;6.074;2023-05-07T07:00:22;16.70;99.90
17619;DHT22;8928;51.678;6.074;2023-05-07T07:03:09;16.80;99.90
17619;DHT22;8928;51.678;6.074;2023-05-07T07:05:56;17.00;99.90
17619;DHT22;8928;51.678;6.074;2023-05-07T07:08:43;17.00;99.90
17619;DHT22;8928;51.678;6.074;2023-05-07T07:11:31;17.10;99.90
17619;DHT22;8928;51.678;6.074;2023-05-07T07:14:18;17.30;99.90
17619;DHT22;8928;51.678;6.074;2023-05-07T07:17:07;17.40;99.90
17619;DHT22;8928;51.678;6.074;2023-05-07T07:19:54;17.60;99.90
17619;DHT22;8928;51.678;6.074;2023-05-07T07:22:41;17.70;99.90
17619;DHT22;8928;51.678;6.074;2023-05-07T07:25:28;17.90;99.90
17619;DHT22;8928;51.678;6.074;2023-05-07T07:28:15;18.00;99.90
17619;DHT22;8928;51.678;6.074;2023-05-07T07:31:02;18.10;99.90
17619;DHT22;8928;51.678;6.074;2023-05-07T07:33:51;18.20;99.90
17619;DHT22;8928;51.678;6.074;2023-05-07T07:36:38;18.30;99.90
17619;DHT22;8928;51.678;6.074;2023-05-07T07:39:25;18.40;99.90
17619;DHT22;8928;51.678;6.074;2023-05-07T07:42:12;18.40;99.90
17619;DHT22;8928;51.678;6.074;2023-05-07T07:44:59;18.50;99.90
17619;DHT22;8928;51.678;6.074;2023-05-07T07:47:46;18.50;99.90
17619;DHT22;8928;51.678;6.074;2023-05-07T07:50:34;18.60;99.90
17619;DHT22;8928;51.678;6.074;2023-05-07T07:53:21;18.70;99.90
17619;DHT22;8928;51.678;6.074;2023-05-07T07:56:08;18.80;99.90
17619;DHT22;8928;51.678;6.074;2023-05-07T07:58:55;18.70;99.90
17619;DHT22;8928;51.678;6.074;2023-05-07T08:01:42;18.80;99.90
17619;DHT22;8928;51.678;6.074;2023-05-07T08:04:29;18.90;99.90
17619;DHT22;8928;51.678;6.074;2023-05-07T08:07:20;19.00;99.90
17619;DHT22;8928;51.678;6.074;2023-05-07T08:10:09;19.10;99.90
17619;DHT22;8928;51.678;6.074;2023-05-07T08:12:56;19.20;99.90
17619;DHT22;8928;51.678;6.074;2023-05-07T08:15:43;19.10;99.90
17619;DHT22;8928;51.678;6.074;2023-05-07T08:18:30;19.30;99.90
17619;DHT22;8928;51.678;6.074;2023-05-07T08:21:17;19.30;99.90
17619;DHT22;8928;51.678;6.074;2023-05-07T08:24:06;19.50;99.90
17619;DHT22;8928;51.678;6.074;2023-05-07T08:26:53;19.70;99.90
17619;DHT22;8928;51.678;6.074;2023-05-07T08:29:40;19.90;99.90
17619;DHT22;8928;51.678;6.074;2023-05-07T08:32:27;20.10;99.90
17619;DHT22;8928;51.678;6.074;2023-05-07T08:35:14;20.20;99.90
17619;DHT22;8928;51.678;6.074;2023-05-07T08:38:01;20.40;99.90
17619;DHT22;8928;51.678;6.074;2023-05-07T08:40:49;20.80;99.90
17619;DHT22;8928;51.678;6.074;2023-05-07T08:43:38;20.90;99.90
17619;DHT22;8928;51.678;6.074;2023-05-07T08:46:30;21.20;99.90
17619;DHT22;8928;51.678;6.074;2023-05-07T08:49:17;21.20;99.90
17619;DHT22;8928;51.678;6.074;2023-05-07T08:52:04;21.20;99.90
17619;DHT22;8928;51.678;6.074;2023-05-07T08:54:52;21.20;99.90
17619;DHT22;8928;51.678;6.074;2023-05-07T08:57:40;21.20;99.90
17619;DHT22;8928;51.678;6.074;2023-05-07T09:00:27;21.20;99.90
17619;DHT22;8928;51.678;6.074;2023-05-07T09:03:14;21.20;99.90
17619;DHT22;8928;51.678;6.074;2023-05-07T09:06:01;21.20;99.90
17619;DHT22;8928;51.678;6.074;2023-05-07T09:08:49;21.20;99.90
17619;DHT22;8928;51.678;6.074;2023-05-07T09:11:37;21.30;99.90
17619;DHT22;8928;51.678;6.074;2023-05-07T09:14:26;21.40;99.90
17619;DHT22;8928;51.678;6.074;2023-05-07T09:17:13;21.40;99.90
17619;DHT22;8928;51.678;6.074;2023-05-07T09:20:02;21.70;99.90
17619;DHT22;8928;51.678;6.074;2023-05-07T09:22:50;21.90;99.90
17619;DHT22;8928;51.678;6.074;2023-05-07T09:25:37;21.80;99.90
17619;DHT22;8928;51.678;6.074;2023-05-07T09:28:25;21.80;99.90
17619;DHT22;8928;51.678;6.074;2023-05-07T09:31:13;22.00;99.90
17619;DHT22;8928;51.678;6.074;2023-05-07T09:34:00;22.30;99.90
17619;DHT22;8928;51.678;6.074;2023-05-07T09:36:47;22.40;99.90
17619;DHT22;8928;51.678;6.074;2023-05-07T09:39:41;22.60;99.90
17619;DHT22;8928;51.678;6.074;2023-05-07T09:42:29;22.80;99.90
17619;DHT22;8928;51.678;6.074;2023-05-07T09:45:16;23.00;99.90
17619;DHT22;8928;51.678;6.074;2023-05-07T09:48:09;23.30;99.90
17619;DHT22;8928;51.678;6.074;2023-05-07T09:51:01;23.40;99.90
17619;DHT22;8928;51.678;6.074;2023-05-07T09:53:49;23.60;99.90
17619;DHT22;8928;51.678;6.074;2023-05-07T09:56:38;24.10;99.90
17619;DHT22;8928;51.678;6.074;2023-05-07T09:59:27;24.40;99.90
17619;DHT22;8928;51.678;6.074;2023-05-07T10:02:14;24.50;99.90
17619;DHT22;8928;51.678;6.074;2023-05-07T10:05:04;24.70;99.90
17619;DHT22;8928;51.678;6.074;2023-05-07T10:07:52;24.90;99.90
17619;DHT22;8928;51.678;6.074;2023-05-07T10:10:40;24.80;99.90
17619;DHT22;8928;51.678;6.074;2023-05-07T10:13:28;25.10;99.90
17619;DHT22;8928;51.678;6.074;2023-05-07T10:16:15;25.10;99.90
17619;DHT22;8928;51.678;6.074;2023-05-07T10:19:03;25.30;99.90
17619;DHT22;8928;51.678;6.074;2023-05-07T10:21:55;25.50;99.90
17619;DHT22;8928;51.678;6.074;2023-05-07T10:24:44;25.30;99.90
17619;DHT22;8928;51.678;6.074;2023-05-07T10:27:34;25.10;99.90
17619;DHT22;8928;51.678;6.074;2023-05-07T10:30:26;25.10;99.90
17619;DHT22;8928;51.678;6.074;2023-05-07T10:33:20;25.10;99.90
17619;DHT22;8928;51.678;6.074;2023-05-07T10:36:09;25.20;99.90
17619;DHT22;8928;51.678;6.074;2023-05-07T10:38:57;25.40;99.90
17619;DHT22;8928;51.678;6.074;2023-05-07T10:41:44;25.60;99.90
17619;DHT22;8928;51.678;6.074;2023-05-07T10:44:31;25.70;99.90
17619;DHT22;8928;51.678;6.074;2023-05-07T10:47:18;25.90;99.90
17619;DHT22;8928;51.678;6.074;2023-05-07T10:50:21;26.00;99.90
17619;DHT22;8928;51.678;6.074;2023-05-07T10:53:22;26.30;99.90
17619;DHT22;8928;51.678;6.074;2023-05-07T10:56:26;26.20;99.90
17619;DHT22;8928;51.678;6.074;2023-05-07T10:59:38;26.60;99.90
17619;DHT22;8928;51.678;6.074;2023-05-07T11:06:09;26.90;99.90
17619;DHT22;8928;51.678;6.074;2023-05-07T11:08:57;26.90;99.90
17619;DHT22;8928;51.678;6.074;2023-05-07T11:11:46;26.70;99.90
17619;DHT22;8928;51.678;6.074;2023-05-07T11:14:51;26.50;99.90
17619;DHT22;8928;51.678;6.074;2023-05-07T11:17:52;26.20;99.90
17619;DHT22;8928;51.678;6.074;2023-05-07T11:20:51;26.10;99.90
17619;DHT22;8928;51.678;6.074;2023-05-07T11:24:09;25.70;99.90
17619;DHT22;8928;51.678;6.074;2023-05-07T11:26:58;25.30;99.90
17619;DHT22;8928;51.678;6.074;2023-05-07T11:29:47;25.10;99.90
17619;DHT22;8928;51.678;6.074;2023-05-07T11:32:34;25.10;99.90
17619;DHT22;8928;51.678;6.074;2023-05-07T11:35:22;25.10;99.90
17619;DHT22;8928;51.678;6.074;2023-05-07T11:38:10;25.00;99.90
17619;DHT22;8928;51.678;6.074;2023-05-07T11:40:59;25.00;99.90
17619;DHT22;8928;51.678;6.074;2023-05-07T11:43:59;24.80;99.90
17619;DHT22;8928;51.678;6.074;2023-05-07T11:46:46;24.90;99.90
17619;DHT22;8928;51.678;6.074;2023-05-07T11:49:34;24.90;99.90
17619;DHT22;8928;51.678;6.074;2023-05-07T11:52:23;24.70;99.90
17619;DHT22;8928;51.678;6.074;2023-05-07T11:55:10;24.70;99.90
17619;DHT22;8928;51.678;6.074;2023-05-07T11:57:57;24.50;99.90
17619;DHT22;8928;51.678;6.074;2023-05-07T12:00:49;24.30;99.90
17619;DHT22;8928;51.678;6.074;2023-05-07T12:03:37;24.40;99.90
17619;DHT22;8928;51.678;6.074;2023-05-07T12:06:24;24.40;99.90
17619;DHT22;8928;51.678;6.074;2023-05-07T12:09:11;24.40;99.90
17619;DHT22;8928;51.678;6.074;2023-05-07T12:12:03;24.40;99.90
17619;DHT22;8928;51.678;6.074;2023-05-07T12:14:50;24.30;99.90
17619;DHT22;8928;51.678;6.074;2023-05-07T12:17:38;24.30;99.90
17619;DHT22;8928;51.678;6.074;2023-05-07T12:20:26;24.20;99.90
17619;DHT22;8928;51.678;6.074;2023-05-07T12:23:14;24.10;99.90
17619;DHT22;8928;51.678;6.074;2023-05-07T12:26:01;23.90;99.90
17619;DHT22;8928;51.678;6.074;2023-05-07T12:28:49;23.90;99.90
17619;DHT22;8928;51.678;6.074;2023-05-07T12:31:36;23.90;99.90
17619;DHT22;8928;51.678;6.074;2023-05-07T12:34:24;23.80;99.90
17619;DHT22;8928;51.678;6.074;2023-05-07T12:37:11;23.60;99.90
17619;DHT22;8928;51.678;6.074;2023-05-07T12:40:06;23.50;99.90
17619;DHT22;8928;51.678;6.074;2023-05-07T12:42:53;23.40;99.90
17619;DHT22;8928;51.678;6.074;2023-05-07T12:45:41;23.30;99.90
17619;DHT22;8928;51.678;6.074;2023-05-07T12:48:29;23.30;99.90
17619;DHT22;8928;51.678;6.074;2023-05-07T12:51:17;23.20;99.90
17619;DHT22;8928;51.678;6.074;2023-05-07T12:54:04;23.10;99.90
17619;DHT22;8928;51.678;6.074;2023-05-07T12:57:00;23.10;99.90
17619;DHT22;8928;51.678;6.074;2023-05-07T12:59:47;23.00;99.90
17619;DHT22;8928;51.678;6.074;2023-05-07T13:02:37;22.80;99.90
17619;DHT22;8928;51.678;6.074;2023-05-07T13:05:24;22.80;99.90
17619;DHT22;8928;51.678;6.074;2023-05-07T13:08:12;22.70;99.90
17619;DHT22;8928;51.678;6.074;2023-05-07T13:11:10;22.60;99.90
17619;DHT22;8928;51.678;6.074;2023-05-07T13:13:57;22.40;99.90
17619;DHT22;8928;51.678;6.074;2023-05-07T13:16:44;22.30;99.90
17619;DHT22;8928;51.678;6.074;2023-05-07T13:19:32;22.10;99.90
17619;DHT22;8928;51.678;6.074;2023-05-07T13:22:19;22.10;99.90
17619;DHT22;8928;51.678;6.074;2023-05-07T13:25:08;21.90;99.90
17619;DHT22;8928;51.678;6.074;2023-05-07T13:27:56;21.80;99.90
17619;DHT22;8928;51.678;6.074;2023-05-07T13:30:44;21.70;99.90
17619;DHT22;8928;51.678;6.074;2023-05-07T13:33:31;21.50;99.90
17619;DHT22;8928;51.678;6.074;2023-05-07T13:36:18;21.40;99.90
17619;DHT22;8928;51.678;6.074;2023-05-07T13:39:05;21.30;99.90
17619;DHT22;8928;51.678;6.074;2023-05-07T13:41:54;21.10;99.90
17619;DHT22;8928;51.678;6.074;2023-05-07T13:44:41;21.00;99.90
17619;DHT22;8928;51.678;6.074;2023-05-07T13:47:29;20.90;99.90
17619;DHT22;8928;51.678;6.074;2023-05-07T13:50:16;20.80;99.90
17619;DHT22;8928;51.678;6.074;2023-05-07T13:53:03;20.70;99.90
17619;DHT22;8928;51.678;6.074;2023-05-07T13:55:50;20.70;99.90
17619;DHT22;8928;51.678;6.074;2023-05-07T13:58:39;20.60;99.90
17619;DHT22;8928;51.678;6.074;2023-05-07T14:01:26;20.50;99.90
17619;DHT22;8928;51.678;6.074;2023-05-07T14:04:13;20.50;99.90
17619;DHT22;8928;51.678;6.074;2023-05-07T14:07:00;20.40;99.90
17619;DHT22;8928;51.678;6.074;2023-05-07T14:09:47;20.30;99.90
17619;DHT22;8928;51.678;6.074;2023-05-07T14:12:34;20.20;99.90
17619;DHT22;8928;51.678;6.074;2023-05-07T14:15:22;20.10;99.90
17619;DHT22;8928;51.678;6.074;2023-05-07T14:18:09;20.10;99.90
17619;DHT22;8928;51.678;6.074;2023-05-07T14:20:57;20.00;99.90
17619;DHT22;8928;51.678;6.074;2023-05-07T14:23:44;19.90;99.90
17619;DHT22;8928;51.678;6.074;2023-05-07T14:26:31;19.70;99.90
17619;DHT22;8928;51.678;6.074;2023-05-07T14:29:18;19.40;99.90
17619;DHT22;8928;51.678;6.074;2023-05-07T14:32:06;19.10;99.90
17619;DHT22;8928;51.678;6.074;2023-05-07T14:34:53;18.20;99.90
17619;DHT22;8928;51.678;6.074;2023-05-07T14:37:40;17.30;99.90
17619;DHT22;8928;51.678;6.074;2023-05-07T14:40:28;16.80;99.90
17619;DHT22;8928;51.678;6.074;2023-05-07T14:43:15;16.40;99.90
17619;DHT22;8928;51.678;6.074;2023-05-07T14:46:02;16.00;99.90
17619;DHT22;8928;51.678;6.074;2023-05-07T14:48:50;15.70;99.90
17619;DHT22;8928;51.678;6.074;2023-05-07T14:51:37;15.50;99.90
17619;DHT22;8928;51.678;6.074;2023-05-07T14:54:24;15.30;99.90
17619;DHT22;8928;51.678;6.074;2023-05-07T14:57:12;15.30;99.90
17619;DHT22;8928;51.678;6.074;2023-05-07T15:00:01;15.20;99.90
17619;DHT22;8928;51.678;6.074;2023-05-07T15:02:50;15.30;99.90
17619;DHT22;8928;51.678;6.074;2023-05-07T15:05:39;15.20;99.90
17619;DHT22;8928;51.678;6.074;2023-05-07T15:08:27;15.20;99.90
17619;DHT22;8928;51.678;6.074;2023-05-07T15:11:14;15.10;99.90
17619;DHT22;8928;51.678;6.074;2023-05-07T15:14:01;15.00;99.90
17619;DHT22;8928;51.678;6.074;2023-05-07T15:16:48;15.00;99.90
17619;DHT22;8928;51.678;6.074;2023-05-07T15:19:35;14.90;99.90
17619;DHT22;8928;51.678;6.074;2023-05-07T15:22:24;14.90;99.90
17619;DHT22;8928;51.678;6.074;2023-05-07T15:25:11;14.90;99.90
17619;DHT22;8928;51.678;6.074;2023-05-07T15:27:58;15.00;99.90
17619;DHT22;8928;51.678;6.074;2023-05-07T15:30:45;15.00;99.90
17619;DHT22;8928;51.678;6.074;2023-05-07T15:33:32;15.00;99.90
17619;DHT22;8928;51.678;6.074;2023-05-07T15:36:19;15.00;99.90
17619;DHT22;8928;51.678;6.074;2023-05-07T15:39:08;15.00;99.90
17619;DHT22;8928;51.678;6.074;2023-05-07T15:41:55;14.90;99.90
17619;DHT22;8928;51.678;6.074;2023-05-07T15:44:42;14.90;99.90
17619;DHT22;8928;51.678;6.074;2023-05-07T15:47:33;14.90;99.90
17619;DHT22;8928;51.678;6.074;2023-05-07T15:50:20;15.00;99.90
17619;DHT22;8928;51.678;6.074;2023-05-07T15:53:07;15.10;99.90
17619;DHT22;8928;51.678;6.074;2023-05-07T15:55:56;15.20;99.90
17619;DHT22;8928;51.678;6.074;2023-05-07T15:58:43;15.30;99.90
17619;DHT22;8928;51.678;6.074;2023-05-07T16:01:31;15.40;99.90
17619;DHT22;8928;51.678;6.074;2023-05-07T16:04:18;15.50;99.90
17619;DHT22;8928;51.678;6.074;2023-05-07T16:07:05;15.60;99.90
17619;DHT22;8928;51.678;6.074;2023-05-07T16:09:52;15.80;99.90
17619;DHT22;8928;51.678;6.074;2023-05-07T16:12:41;15.90;99.90
17619;DHT22;8928;51.678;6.074;2023-05-07T16:15:28;16.10;99.90
17619;DHT22;8928;51.678;6.074;2023-05-07T16:18:15;16.30;99.90
17619;DHT22;8928;51.678;6.074;2023-05-07T16:21:02;16.60;99.90
17619;DHT22;8928;51.678;6.074;2023-05-07T16:23:49;16.80;99.90
17619;DHT22;8928;51.678;6.074;2023-05-07T16:26:36;17.00;99.90
17619;DHT22;8928;51.678;6.074;2023-05-07T16:29:25;17.30;99.90
17619;DHT22;8928;51.678;6.074;2023-05-07T16:32:12;17.50;99.90
17619;DHT22;8928;51.678;6.074;2023-05-07T16:34:59;17.40;99.90
17619;DHT22;8928;51.678;6.074;2023-05-07T16:37:46;17.50;99.90
17619;DHT22;8928;51.678;6.074;2023-05-07T16:40:36;17.50;99.90
17619;DHT22;8928;51.678;6.074;2023-05-07T16:43:23;17.60;99.90
17619;DHT22;8928;51.678;6.074;2023-05-07T16:46:12;17.50;99.90
17619;DHT22;8928;51.678;6.074;2023-05-07T16:48:59;17.50;99.90
17619;DHT22;8928;51.678;6.074;2023-05-07T16:51:46;17.70;99.90
17619;DHT22;8928;51.678;6.074;2023-05-07T16:54:34;17.50;99.90
17619;DHT22;8928;51.678;6.074;2023-05-07T16:57:22;17.70;99.90
17619;DHT22;8928;51.678;6.074;2023-05-07T17:00:10;17.80;99.90
17619;DHT22;8928;51.678;6.074;2023-05-07T17:02:58;17.80;99.90
17619;DHT22;8928;51.678;6.074;2023-05-07T17:05:45;17.70;99.90
17619;DHT22;8928;51.678;6.074;2023-05-07T17:08:32;17.60;99.90
17619;DHT22;8928;51.678;6.074;2023-05-07T17:11:19;17.60;99.90
17619;DHT22;8928;51.678;6.074;2023-05-07T17:14:07;17.60;99.90
17619;DHT22;8928;51.678;6.074;2023-05-07T17:16:54;17.50;99.90
17619;DHT22;8928;51.678;6.074;2023-05-07T17:19:43;17.40;99.90
17619;DHT22;8928;51.678;6.074;2023-05-07T17:22:30;17.30;99.90
17619;DHT22;8928;51.678;6.074;2023-05-07T17:25:17;17.20;99.90
17619;DHT22;8928;51.678;6.074;2023-05-07T17:28:04;17.10;99.90
17619;DHT22;8928;51.678;6.074;2023-05-07T17:30:51;17.10;99.90
17619;DHT22;8928;51.678;6.074;2023-05-07T17:33:38;17.00;99.90
17619;DHT22;8928;51.678;6.074;2023-05-07T17:36:27;16.90;99.90
17619;DHT22;8928;51.678;6.074;2023-05-07T17:39:14;16.70;99.90
17619;DHT22;8928;51.678;6.074;2023-05-07T17:42:01;16.60;99.90
17619;DHT22;8928;51.678;6.074;2023-05-07T17:44:48;16.50;99.90
17619;DHT22;8928;51.678;6.074;2023-05-07T17:47:35;16.30;99.90
17619;DHT22;8928;51.678;6.074;2023-05-07T17:50:22;16.20;99.90
17619;DHT22;8928;51.678;6.074;2023-05-07T17:53:11;16.10;99.90
17619;DHT22;8928;51.678;6.074;2023-05-07T17:55:58;15.90;99.90
17619;DHT22;8928;51.678;6.074;2023-05-07T17:58:45;15.90;99.90
17619;DHT22;8928;51.678;6.074;2023-05-07T18:01:32;15.90;99.90
17619;DHT22;8928;51.678;6.074;2023-05-07T18:04:19;15.90;99.90